sensor_id;sensor_type;location;lat;lon;timestamp;temperature;humidity
11650;DHT22;5881;48.522;7.682;2023-03-21T00:01:52;7.20;99.90
11650;DHT22;5881;48.522;7.682;2023-03-21T00:04:19;7.10;99.90
11650;DHT22;5881;48.522;7.682;2023-03-21T00:06:44;7.00;99.90
11650;DHT22;5881;48.522;7.682;2023-03-21T00:09:10;7.10;99.90
11650;DHT22;5881;48.522;7.682;2023-03-21T00:11:37;7.00;99.90
11650;DHT22;5881;48.522;7.682;2023-03-21T00:14:02;7.00;99.90
11650;DHT22;5881;48.522;7.682;2023-03-21T00:16:28;6.90;99.90
11650;DHT22;5881;48.522;7.682;2023-03-21T00:18:57;6.90;99.90
11650;DHT22;5881;48.522;7.682;2023-03-21T00:21:23;6.80;99.90
11650;DHT22;5881;48.522;7.682;2023-03-21T00:23:54;7.00;99.90
11650;DHT22;5881;48.522;7.682;2023-03-21T00:26:20;6.80;99.90
11650;DHT22;5881;48.522;7.682;2023-03-21T00:28:47;6.60;99.90
11650;DHT22;5881;48.522;7.682;2023-03-21T00:31:13;6.30;99.90
11650;DHT22;5881;48.522;7.682;2023-03-21T00:33:39;6.30;99.90
11650;DHT22;5881;48.522;7.682;2023-03-21T00:36:07;6.20;99.90
11650;DHT22;5881;48.522;7.682;2023-03-21T00:38:34;6.10;99.90
11650;DHT22;5881;48.522;7.682;2023-03-21T00:41:02;6.20;99.90
11650;DHT22;5881;48.522;7.682;2023-03-21T00:43:28;6.10;99.90
11650;DHT22;5881;48.522;7.682;2023-03-21T00:45:58;6.20;99.90
11650;DHT22;5881;48.522;7.682;2023-03-21T00:48:25;6.10;99.90
11650;DHT22;5881;48.522;7.682;2023-03-21T00:50:52;6.10;99.90
11650;DHT22;5881;48.522;7.682;2023-03-21T00:53:19;6.00;99.90
11650;DHT22;5881;48.522;7.682;2023-03-21T00:55:45;5.90;99.90
11650;DHT22;5881;48.522;7.682;2023-03-21T00:58:11;6.00;99.90
11650;DHT22;5881;48.522;7.682;2023-03-21T01:00:37;6.00;99.90
11650;DHT22;5881;48.522;7.682;2023-03-21T01:03:05;6.10;99.90
11650;DHT22;5881;48.522;7.682;2023-03-21T01:05:47;6.10;99.90
11650;DHT22;5881;48.522;7.682;2023-03-21T01:08:36;6.10;99.90
11650;DHT22;5881;48.522;7.682;2023-03-21T01:11:04;6.00;99.90
11650;DHT22;5881;48.522;7.682;2023-03-21T01:13:31;6.00;99.90
11650;DHT22;5881;48.522;7.682;2023-03-21T01:15:57;5.90;99.90
11650;DHT22;5881;48.522;7.682;2023-03-21T01:18:27;5.90;99.90
11650;DHT22;5881;48.522;7.682;2023-03-21T01:20:54;5.90;99.90
11650;DHT22;5881;48.522;7.682;2023-03-21T01:23:21;5.70;99.90
11650;DHT22;5881;48.522;7.682;2023-03-21T01:25:48;5.70;99.90
11650;DHT22;5881;48.522;7.682;2023-03-21T01:28:14;5.70;99.90
11650;DHT22;5881;48.522;7.682;2023-03-21T01:30:48;5.80;99.90
11650;DHT22;5881;48.522;7.682;2023-03-21T01:33:14;5.80;99.90
11650;DHT22;5881;48.522;7.682;2023-03-21T01:35:40;5.90;99.90
11650;DHT22;5881;48.522;7.682;2023-03-21T01:38:05;6.10;99.90
11650;DHT22;5881;48.522;7.682;2023-03-21T01:40:31;6.20;99.90
11650;DHT22;5881;48.522;7.682;2023-03-21T01:42:57;6.30;99.90
11650;DHT22;5881;48.522;7.682;2023-03-21T01:48:28;6.20;99.90
11650;DHT22;5881;48.522;7.682;2023-03-21T01:50:54;6.30;99.90
11650;DHT22;5881;48.522;7.682;2023-03-21T01:53:23;6.30;99.90
11650;DHT22;5881;48.522;7.682;2023-03-21T01:55:58;6.30;99.90
11650;DHT22;5881;48.522;7.682;2023-03-21T01:58:25;6.40;99.90
11650;DHT22;5881;48.522;7.682;2023-03-21T02:00:52;6.30;99.90
11650;DHT22;5881;48.522;7.682;2023-03-21T02:03:19;6.40;99.90
11650;DHT22;5881;48.522;7.682;2023-03-21T02:05:53;6.40;99.90
11650;DHT22;5881;48.522;7.682;2023-03-21T02:08:21;6.60;99.90
11650;DHT22;5881;48.522;7.682;2023-03-21T02:10:48;6.60;99.90
11650;DHT22;5881;48.522;7.682;2023-03-21T02:13:14;6.60;99.90
11650;DHT22;5881;48.522;7.682;2023-03-21T02:15:45;6.70;99.90
11650;DHT22;5881;48.522;7.682;2023-03-21T02:18:21;6.70;99.90
11650;DHT22;5881;48.522;7.682;2023-03-21T02:23:29;6.80;99.90
11650;DHT22;5881;48.522;7.682;2023-03-21T02:28:57;6.80;99.90
11650;DHT22;5881;48.522;7.682;2023-03-21T02:32:01;6.80;99.90
11650;DHT22;5881;48.522;7.682;2023-03-21T02:37:40;6.60;99.90
11650;DHT22;5881;48.522;7.682;2023-03-21T02:45:19;6.40;99.90
11650;DHT22;5881;48.522;7.682;2023-03-21T02:47:56;6.40;99.90
11650;DHT22;5881;48.522;7.682;2023-03-21T02:50:28;6.30;99.90
11650;DHT22;5881;48.522;7.682;2023-03-21T02:52:56;6.20;99.90
11650;DHT22;5881;48.522;7.682;2023-03-21T02:55:28;6.10;99.90
11650;DHT22;5881;48.522;7.682;2023-03-21T02:57:56;6.00;99.90
11650;DHT22;5881;48.522;7.682;2023-03-21T03:00:26;6.00;99.90
11650;DHT22;5881;48.522;7.682;2023-03-21T03:02:53;5.90;99.90
11650;DHT22;5881;48.522;7.682;2023-03-21T03:05:28;5.90;99.90
11650;DHT22;5881;48.522;7.682;2023-03-21T03:10:56;5.70;99.90
11650;DHT22;5881;48.522;7.682;2023-03-21T03:18:59;5.50;99.90
11650;DHT22;5881;48.522;7.682;2023-03-21T03:21:31;5.60;99.90
11650;DHT22;5881;48.522;7.682;2023-03-21T03:26:50;5.60;99.90
11650;DHT22;5881;48.522;7.682;2023-03-21T03:29:18;5.50;99.90
11650;DHT22;5881;48.522;7.682;2023-03-21T03:31:48;5.50;99.90
11650;DHT22;5881;48.522;7.682;2023-03-21T03:34:19;5.40;99.90
11650;DHT22;5881;48.522;7.682;2023-03-21T03:36:49;5.40;99.90
11650;DHT22;5881;48.522;7.682;2023-03-21T03:39:21;5.40;99.90
11650;DHT22;5881;48.522;7.682;2023-03-21T03:41:54;5.30;99.90
11650;DHT22;5881;48.522;7.682;2023-03-21T03:44:23;5.40;99.90
11650;DHT22;5881;48.522;7.682;2023-03-21T03:50:25;5.40;99.90
11650;DHT22;5881;48.522;7.682;2023-03-21T03:52:55;5.30;99.90
11650;DHT22;5881;48.522;7.682;2023-03-21T03:55:22;5.10;99.90
11650;DHT22;5881;48.522;7.682;2023-03-21T03:57:51;5.10;99.90
11650;DHT22;5881;48.522;7.682;2023-03-21T04:00:18;5.10;99.90
11650;DHT22;5881;48.522;7.682;2023-03-21T04:02:44;5.10;99.90
11650;DHT22;5881;48.522;7.682;2023-03-21T04:05:10;5.20;99.90
11650;DHT22;5881;48.522;7.682;2023-03-21T04:07:36;5.20;99.90
11650;DHT22;5881;48.522;7.682;2023-03-21T04:10:02;5.20;99.90
11650;DHT22;5881;48.522;7.682;2023-03-21T04:12:28;5.30;99.90
11650;DHT22;5881;48.522;7.682;2023-03-21T04:14:53;5.40;99.90
11650;DHT22;5881;48.522;7.682;2023-03-21T04:17:19;5.30;99.90
11650;DHT22;5881;48.522;7.682;2023-03-21T04:19:44;5.30;99.90
11650;DHT22;5881;48.522;7.682;2023-03-21T04:22:11;5.40;99.90
11650;DHT22;5881;48.522;7.682;2023-03-21T04:24:38;5.30;99.90
11650;DHT22;5881;48.522;7.682;2023-03-21T04:27:04;5.30;99.90
11650;DHT22;5881;48.522;7.682;2023-03-21T04:29:31;5.40;99.90
11650;DHT22;5881;48.522;7.682;2023-03-21T04:31:56;5.10;99.90
11650;DHT22;5881;48.522;7.682;2023-03-21T04:34:22;5.10;99.90
11650;DHT22;5881;48.522;7.682;2023-03-21T04:36:52;5.20;99.90
11650;DHT22;5881;48.522;7.682;2023-03-21T04:39:18;5.10;99.90
11650;DHT22;5881;48.522;7.682;2023-03-21T04:41:45;5.30;99.90
11650;DHT22;5881;48.522;7.682;2023-03-21T04:44:12;5.10;99.90
11650;DHT22;5881;48.522;7.682;2023-03-21T04:46:38;5.10;99.90
11650;DHT22;5881;48.522;7.682;2023-03-21T04:49:04;5.10;99.90
11650;DHT22;5881;48.522;7.682;2023-03-21T04:51:31;5.20;99.90
11650;DHT22;5881;48.522;7.682;2023-03-21T04:53:57;4.90;99.90
11650;DHT22;5881;48.522;7.682;2023-03-21T04:56:27;5.00;99.90
11650;DHT22;5881;48.522;7.682;2023-03-21T04:59:04;5.10;99.90
11650;DHT22;5881;48.522;7.682;2023-03-21T05:01:30;5.10;99.90
11650;DHT22;5881;48.522;7.682;2023-03-21T05:04:00;5.10;99.90
11650;DHT22;5881;48.522;7.682;2023-03-21T05:06:27;5.00;99.90
11650;DHT22;5881;48.522;7.682;2023-03-21T05:08:54;5.00;99.90
11650;DHT22;5881;48.522;7.682;2023-03-21T05:11:28;4.90;99.90
11650;DHT22;5881;48.522;7.682;2023-03-21T05:13:58;4.90;99.90
11650;DHT22;5881;48.522;7.682;2023-03-21T05:16:24;4.90;99.90
11650;DHT22;5881;48.522;7.682;2023-03-21T05:18:54;5.00;99.90
11650;DHT22;5881;48.522;7.682;2023-03-21T05:21:23;5.00;99.90
11650;DHT22;5881;48.522;7.682;2023-03-21T05:23:49;5.10;99.90
11650;DHT22;5881;48.522;7.682;2023-03-21T05:26:23;5.10;99.90
11650;DHT22;5881;48.522;7.682;2023-03-21T05:28:49;5.10;99.90
11650;DHT22;5881;48.522;7.682;2023-03-21T05:31:19;5.10;99.90
11650;DHT22;5881;48.522;7.682;2023-03-21T05:33:46;5.00;99.90
11650;DHT22;5881;48.522;7.682;2023-03-21T05:36:12;5.00;99.90
11650;DHT22;5881;48.522;7.682;2023-03-21T05:38:38;4.90;99.90
11650;DHT22;5881;48.522;7.682;2023-03-21T05:41:07;5.00;99.90
11650;DHT22;5881;48.522;7.682;2023-03-21T05:43:33;5.10;99.90
11650;DHT22;5881;48.522;7.682;2023-03-21T05:45:58;5.20;99.90
11650;DHT22;5881;48.522;7.682;2023-03-21T05:48:24;5.20;99.90
11650;DHT22;5881;48.522;7.682;2023-03-21T05:50:50;5.30;99.90
11650;DHT22;5881;48.522;7.682;2023-03-21T05:53:15;5.30;99.90
11650;DHT22;5881;48.522;7.682;2023-03-21T05:55:41;5.30;99.90
11650;DHT22;5881;48.522;7.682;2023-03-21T05:58:06;5.40;99.90
11650;DHT22;5881;48.522;7.682;2023-03-21T06:00:32;5.50;99.90
11650;DHT22;5881;48.522;7.682;2023-03-21T06:02:57;5.70;99.90
11650;DHT22;5881;48.522;7.682;2023-03-21T06:05:23;5.70;99.90
11650;DHT22;5881;48.522;7.682;2023-03-21T06:07:49;5.80;99.90
11650;DHT22;5881;48.522;7.682;2023-03-21T06:10:14;5.90;99.90
11650;DHT22;5881;48.522;7.682;2023-03-21T06:12:40;6.10;99.90
11650;DHT22;5881;48.522;7.682;2023-03-21T06:15:08;6.30;99.90
11650;DHT22;5881;48.522;7.682;2023-03-21T06:17:34;6.80;99.90
11650;DHT22;5881;48.522;7.682;2023-03-21T06:20:00;7.70;99.90
11650;DHT22;5881;48.522;7.682;2023-03-21T06:22:26;8.50;99.90
11650;DHT22;5881;48.522;7.682;2023-03-21T06:24:52;8.60;99.90
11650;DHT22;5881;48.522;7.682;2023-03-21T06:27:17;8.10;99.90
11650;DHT22;5881;48.522;7.682;2023-03-21T06:29:43;7.40;99.90
11650;DHT22;5881;48.522;7.682;2023-03-21T06:32:10;7.20;99.90
11650;DHT22;5881;48.522;7.682;2023-03-21T06:34:36;7.10;99.90
11650;DHT22;5881;48.522;7.682;2023-03-21T06:37:01;7.20;99.90
11650;DHT22;5881;48.522;7.682;2023-03-21T06:39:29;7.20;99.90
11650;DHT22;5881;48.522;7.682;2023-03-21T06:41:56;7.40;99.90
11650;DHT22;5881;48.522;7.682;2023-03-21T06:44:22;7.30;99.90
11650;DHT22;5881;48.522;7.682;2023-03-21T06:46:49;7.30;99.90
11650;DHT22;5881;48.522;7.682;2023-03-21T06:49:14;7.30;99.90
11650;DHT22;5881;48.522;7.682;2023-03-21T06:51:40;7.20;99.90
11650;DHT22;5881;48.522;7.682;2023-03-21T06:54:06;7.40;99.90
11650;DHT22;5881;48.522;7.682;2023-03-21T06:56:31;7.40;99.90
11650;DHT22;5881;48.522;7.682;2023-03-21T06:58:57;7.70;99.90
11650;DHT22;5881;48.522;7.682;2023-03-21T07:01:23;7.50;99.90
11650;DHT22;5881;48.522;7.682;2023-03-21T07:03:49;7.60;99.90
11650;DHT22;5881;48.522;7.682;2023-03-21T07:06:14;7.90;99.90
11650;DHT22;5881;48.522;7.682;2023-03-21T07:08:41;8.00;99.90
11650;DHT22;5881;48.522;7.682;2023-03-21T07:11:07;8.00;99.90
11650;DHT22;5881;48.522;7.682;2023-03-21T07:13:33;8.00;99.90
11650;DHT22;5881;48.522;7.682;2023-03-21T07:15:59;8.00;99.90
11650;DHT22;5881;48.522;7.682;2023-03-21T07:18:25;8.30;99.90
11650;DHT22;5881;48.522;7.682;2023-03-21T07:20:51;8.20;99.90
11650;DHT22;5881;48.522;7.682;2023-03-21T07:23:18;8.40;99.90
11650;DHT22;5881;48.522;7.682;2023-03-21T07:25:44;8.50;99.90
11650;DHT22;5881;48.522;7.682;2023-03-21T07:28:11;8.60;99.90
11650;DHT22;5881;48.522;7.682;2023-03-21T07:30:36;8.70;99.90
11650;DHT22;5881;48.522;7.682;2023-03-21T07:33:02;8.80;99.90
11650;DHT22;5881;48.522;7.682;2023-03-21T07:35:28;8.70;99.90
11650;DHT22;5881;48.522;7.682;2023-03-21T07:37:53;8.80;99.90
11650;DHT22;5881;48.522;7.682;2023-03-21T07:40:19;8.70;99.90
11650;DHT22;5881;48.522;7.682;2023-03-21T07:42:47;8.90;99.90
11650;DHT22;5881;48.522;7.682;2023-03-21T07:45:12;9.20;99.90
11650;DHT22;5881;48.522;7.682;2023-03-21T07:47:45;9.40;99.90
11650;DHT22;5881;48.522;7.682;2023-03-21T07:50:11;9.90;99.90
11650;DHT22;5881;48.522;7.682;2023-03-21T07:52:37;9.80;99.90
11650;DHT22;5881;48.522;7.682;2023-03-21T07:55:02;9.70;99.90
11650;DHT22;5881;48.522;7.682;2023-03-21T07:57:28;9.50;99.90
11650;DHT22;5881;48.522;7.682;2023-03-21T07:59:54;9.60;99.90
11650;DHT22;5881;48.522;7.682;2023-03-21T08:02:19;9.70;99.90
11650;DHT22;5881;48.522;7.682;2023-03-21T08:04:46;9.90;99.90
11650;DHT22;5881;48.522;7.682;2023-03-21T08:07:14;9.60;99.90
11650;DHT22;5881;48.522;7.682;2023-03-21T08:09:42;9.50;99.90
11650;DHT22;5881;48.522;7.682;2023-03-21T08:12:07;9.60;99.90
11650;DHT22;5881;48.522;7.682;2023-03-21T08:14:33;9.30;99.90
11650;DHT22;5881;48.522;7.682;2023-03-21T08:17:00;9.30;99.90
11650;DHT22;5881;48.522;7.682;2023-03-21T08:19:25;9.30;99.90
11650;DHT22;5881;48.522;7.682;2023-03-21T08:21:52;9.30;99.90
11650;DHT22;5881;48.522;7.682;2023-03-21T08:24:18;9.40;99.90
11650;DHT22;5881;48.522;7.682;2023-03-21T08:26:44;9.50;99.90
11650;DHT22;5881;48.522;7.682;2023-03-21T08:29:11;9.60;99.90
11650;DHT22;5881;48.522;7.682;2023-03-21T08:31:39;10.00;99.90
11650;DHT22;5881;48.522;7.682;2023-03-21T08:34:04;10.40;99.90
11650;DHT22;5881;48.522;7.682;2023-03-21T08:36:30;10.70;99.90
11650;DHT22;5881;48.522;7.682;2023-03-21T08:38:56;10.70;99.90
11650;DHT22;5881;48.522;7.682;2023-03-21T08:41:33;10.70;99.90
11650;DHT22;5881;48.522;7.682;2023-03-21T08:43:59;11.10;99.90
11650;DHT22;5881;48.522;7.682;2023-03-21T08:46:25;11.00;99.90
11650;DHT22;5881;48.522;7.682;2023-03-21T08:48:51;11.20;99.90
11650;DHT22;5881;48.522;7.682;2023-03-21T08:51:17;11.40;99.90
11650;DHT22;5881;48.522;7.682;2023-03-21T08:53:43;11.30;99.90
11650;DHT22;5881;48.522;7.682;2023-03-21T08:56:09;11.50;19.90
11650;DHT22;5881;48.522;7.682;2023-03-21T08:58:36;11.30;20.10
11650;DHT22;5881;48.522;7.682;2023-03-21T09:01:02;11.50;16.10
11650;DHT22;5881;48.522;7.682;2023-03-21T09:03:28;11.60;15.90
11650;DHT22;5881;48.522;7.682;2023-03-21T09:05:55;11.60;10.60
11650;DHT22;5881;48.522;7.682;2023-03-21T09:08:21;11.80;8.40
11650;DHT22;5881;48.522;7.682;2023-03-21T09:10:53;11.60;5.50
11650;DHT22;5881;48.522;7.682;2023-03-21T09:13:20;11.90;7.70
11650;DHT22;5881;48.522;7.682;2023-03-21T09:15:46;11.90;3.40
11650;DHT22;5881;48.522;7.682;2023-03-21T09:18:12;12.00;1.00
11650;DHT22;5881;48.522;7.682;2023-03-21T09:20:44;12.50;1.00
11650;DHT22;5881;48.522;7.682;2023-03-21T09:23:10;12.90;1.00
11650;DHT22;5881;48.522;7.682;2023-03-21T09:25:37;12.70;1.00
11650;DHT22;5881;48.522;7.682;2023-03-21T09:28:03;13.10;1.00
11650;DHT22;5881;48.522;7.682;2023-03-21T09:30:32;13.50;1.00
11650;DHT22;5881;48.522;7.682;2023-03-21T09:33:02;13.80;1.00
11650;DHT22;5881;48.522;7.682;2023-03-21T09:35:31;14.10;1.00
11650;DHT22;5881;48.522;7.682;2023-03-21T09:37:56;14.50;1.00
11650;DHT22;5881;48.522;7.682;2023-03-21T09:40:54;15.30;1.00
11650;DHT22;5881;48.522;7.682;2023-03-21T09:46:26;15.40;1.00
11650;DHT22;5881;48.522;7.682;2023-03-21T09:49:14;15.00;1.00
11650;DHT22;5881;48.522;7.682;2023-03-21T09:51:46;15.60;1.00
11650;DHT22;5881;48.522;7.682;2023-03-21T09:54:22;15.40;1.00
11650;DHT22;5881;48.522;7.682;2023-03-21T09:56:52;15.70;1.00
11650;DHT22;5881;48.522;7.682;2023-03-21T09:59:37;15.90;1.00
11650;DHT22;5881;48.522;7.682;2023-03-21T10:02:45;16.60;1.00
11650;DHT22;5881;48.522;7.682;2023-03-21T10:05:38;16.80;1.00
11650;DHT22;5881;48.522;7.682;2023-03-21T10:08:21;16.10;1.00
11650;DHT22;5881;48.522;7.682;2023-03-21T10:10:50;16.20;1.00
11650;DHT22;5881;48.522;7.682;2023-03-21T10:13:23;16.40;1.00
11650;DHT22;5881;48.522;7.682;2023-03-21T10:15:55;15.90;1.00
11650;DHT22;5881;48.522;7.682;2023-03-21T10:18:23;16.40;1.00
11650;DHT22;5881;48.522;7.682;2023-03-21T10:20:50;17.70;1.00
11650;DHT22;5881;48.522;7.682;2023-03-21T10:23:19;17.70;1.00
11650;DHT22;5881;48.522;7.682;2023-03-21T10:25:47;18.50;1.00
11650;DHT22;5881;48.522;7.682;2023-03-21T10:28:17;17.80;1.00
11650;DHT22;5881;48.522;7.682;2023-03-21T10:30:52;18.20;1.00
11650;DHT22;5881;48.522;7.682;2023-03-21T10:33:21;16.80;1.00
11650;DHT22;5881;48.522;7.682;2023-03-21T10:36:15;16.70;1.00
11650;DHT22;5881;48.522;7.682;2023-03-21T10:38:48;17.80;1.00
11650;DHT22;5881;48.522;7.682;2023-03-21T10:41:15;18.60;1.00
11650;DHT22;5881;48.522;7.682;2023-03-21T10:43:45;17.80;1.00
11650;DHT22;5881;48.522;7.682;2023-03-21T10:46:19;19.20;1.00
11650;DHT22;5881;48.522;7.682;2023-03-21T10:48:50;19.60;1.00
11650;DHT22;5881;48.522;7.682;2023-03-21T10:51:30;19.50;1.00
11650;DHT22;5881;48.522;7.682;2023-03-21T10:53:59;19.20;1.00
11650;DHT22;5881;48.522;7.682;2023-03-21T10:56:28;18.10;1.00
11650;DHT22;5881;48.522;7.682;2023-03-21T10:58:57;18.60;1.00
11650;DHT22;5881;48.522;7.682;2023-03-21T11:01:35;18.20;1.00
11650;DHT22;5881;48.522;7.682;2023-03-21T11:04:14;17.40;1.00
11650;DHT22;5881;48.522;7.682;2023-03-21T11:06:42;17.00;1.00
11650;DHT22;5881;48.522;7.682;2023-03-21T11:09:17;17.60;1.00
11650;DHT22;5881;48.522;7.682;2023-03-21T11:14:49;18.90;1.00
11650;DHT22;5881;48.522;7.682;2023-03-21T11:17:29;19.30;1.00
11650;DHT22;5881;48.522;7.682;2023-03-21T11:20:01;19.00;1.00
11650;DHT22;5881;48.522;7.682;2023-03-21T11:22:39;18.90;1.00
11650;DHT22;5881;48.522;7.682;2023-03-21T11:25:09;19.90;1.00
11650;DHT22;5881;48.522;7.682;2023-03-21T11:27:49;19.20;1.00
11650;DHT22;5881;48.522;7.682;2023-03-21T11:30:26;19.30;1.00
11650;DHT22;5881;48.522;7.682;2023-03-21T11:32:56;20.20;1.00
11650;DHT22;5881;48.522;7.682;2023-03-21T11:35:27;20.60;1.00
11650;DHT22;5881;48.522;7.682;2023-03-21T11:37:54;19.70;1.00
11650;DHT22;5881;48.522;7.682;2023-03-21T11:42:49;19.40;1.00
11650;DHT22;5881;48.522;7.682;2023-03-21T11:47:53;18.70;1.00
11650;DHT22;5881;48.522;7.682;2023-03-21T11:50:30;18.80;1.00
11650;DHT22;5881;48.522;7.682;2023-03-21T12:01:18;18.30;1.00
11650;DHT22;5881;48.522;7.682;2023-03-21T12:06:37;19.00;1.00
11650;DHT22;5881;48.522;7.682;2023-03-21T12:09:36;18.30;1.00
11650;DHT22;5881;48.522;7.682;2023-03-21T12:12:12;18.60;1.00
11650;DHT22;5881;48.522;7.682;2023-03-21T12:20:15;17.00;1.00
11650;DHT22;5881;48.522;7.682;2023-03-21T12:30:50;17.90;1.00
11650;DHT22;5881;48.522;7.682;2023-03-21T12:41:40;17.70;1.00
11650;DHT22;5881;48.522;7.682;2023-03-21T12:44:18;17.20;1.00
11650;DHT22;5881;48.522;7.682;2023-03-21T12:47:05;16.80;1.00
11650;DHT22;5881;48.522;7.682;2023-03-21T12:52:12;17.30;1.00
11650;DHT22;5881;48.522;7.682;2023-03-21T12:54:43;17.20;1.00
11650;DHT22;5881;48.522;7.682;2023-03-21T12:57:18;17.10;1.00
11650;DHT22;5881;48.522;7.682;2023-03-21T12:59:49;17.20;1.00
11650;DHT22;5881;48.522;7.682;2023-03-21T13:02:33;17.30;1.00
11650;DHT22;5881;48.522;7.682;2023-03-21T13:07:38;17.30;1.00
11650;DHT22;5881;48.522;7.682;2023-03-21T13:10:14;17.30;1.00
11650;DHT22;5881;48.522;7.682;2023-03-21T13:19:09;16.90;1.00
11650;DHT22;5881;48.522;7.682;2023-03-21T13:21:51;16.90;1.00
11650;DHT22;5881;48.522;7.682;2023-03-21T13:27:34;16.60;1.00
11650;DHT22;5881;48.522;7.682;2023-03-21T13:30:22;16.70;1.00
11650;DHT22;5881;48.522;7.682;2023-03-21T13:32:54;16.50;1.00
11650;DHT22;5881;48.522;7.682;2023-03-21T13:38:04;16.20;1.00
11650;DHT22;5881;48.522;7.682;2023-03-21T13:40:43;16.30;1.00
11650;DHT22;5881;48.522;7.682;2023-03-21T13:46:09;16.40;1.00
11650;DHT22;5881;48.522;7.682;2023-03-21T13:54:15;16.60;1.00
11650;DHT22;5881;48.522;7.682;2023-03-21T14:05:03;16.70;1.00
11650;DHT22;5881;48.522;7.682;2023-03-21T14:07:35;16.90;1.00
11650;DHT22;5881;48.522;7.682;2023-03-21T14:12:44;16.90;1.00
11650;DHT22;5881;48.522;7.682;2023-03-21T14:15:23;17.00;1.00
11650;DHT22;5881;48.522;7.682;2023-03-21T14:18:00;17.10;1.00
11650;DHT22;5881;48.522;7.682;2023-03-21T14:20:32;17.10;1.00
11650;DHT22;5881;48.522;7.682;2023-03-21T14:22:58;17.10;1.00
11650;DHT22;5881;48.522;7.682;2023-03-21T14:25:28;17.00;1.00
11650;DHT22;5881;48.522;7.682;2023-03-21T14:28:00;17.00;1.00
11650;DHT22;5881;48.522;7.682;2023-03-21T14:30:38;17.20;1.00
11650;DHT22;5881;48.522;7.682;2023-03-21T14:35:36;16.90;1.00
11650;DHT22;5881;48.522;7.682;2023-03-21T14:38:06;17.00;1.00
11650;DHT22;5881;48.522;7.682;2023-03-21T14:40:34;16.90;1.00
11650;DHT22;5881;48.522;7.682;2023-03-21T14:43:04;16.90;1.00
11650;DHT22;5881;48.522;7.682;2023-03-21T14:45:33;16.80;1.00
11650;DHT22;5881;48.522;7.682;2023-03-21T14:48:11;16.90;1.00
11650;DHT22;5881;48.522;7.682;2023-03-21T14:50:41;16.90;1.00
11650;DHT22;5881;48.522;7.682;2023-03-21T14:53:35;16.80;1.00
11650;DHT22;5881;48.522;7.682;2023-03-21T14:58:31;16.70;1.00
11650;DHT22;5881;48.522;7.682;2023-03-21T15:01:01;16.80;1.00
11650;DHT22;5881;48.522;7.682;2023-03-21T15:03:29;16.80;1.00
11650;DHT22;5881;48.522;7.682;2023-03-21T15:05:55;16.70;1.00
11650;DHT22;5881;48.522;7.682;2023-03-21T15:08:23;16.40;1.00
11650;DHT22;5881;48.522;7.682;2023-03-21T15:13:39;16.50;1.00
11650;DHT22;5881;48.522;7.682;2023-03-21T15:16:08;16.40;1.00
11650;DHT22;5881;48.522;7.682;2023-03-21T15:18:37;16.30;1.00
11650;DHT22;5881;48.522;7.682;2023-03-21T15:21:17;16.20;1.00
11650;DHT22;5881;48.522;7.682;2023-03-21T15:23:48;16.20;1.00
11650;DHT22;5881;48.522;7.682;2023-03-21T15:26:16;16.20;1.00
11650;DHT22;5881;48.522;7.682;2023-03-21T15:28:47;16.20;1.00
11650;DHT22;5881;48.522;7.682;2023-03-21T15:31:19;16.00;1.00
11650;DHT22;5881;48.522;7.682;2023-03-21T15:33:49;15.90;1.00
11650;DHT22;5881;48.522;7.682;2023-03-21T15:37:06;15.90;1.00
11650;DHT22;5881;48.522;7.682;2023-03-21T15:39:08;15.90;1.00
11650;DHT22;5881;48.522;7.682;2023-03-21T15:41:37;15.80;1.00
11650;DHT22;5881;48.522;7.682;2023-03-21T15:49:30;15.60;1.00
11650;DHT22;5881;48.522;7.682;2023-03-21T15:51:58;15.60;1.00
11650;DHT22;5881;48.522;7.682;2023-03-21T15:54:34;15.60;1.00
11650;DHT22;5881;48.522;7.682;2023-03-21T15:57:04;15.50;1.00
11650;DHT22;5881;48.522;7.682;2023-03-21T15:59:40;15.40;1.00
11650;DHT22;5881;48.522;7.682;2023-03-21T16:02:21;15.40;1.00
11650;DHT22;5881;48.522;7.682;2023-03-21T16:07:49;15.40;1.00
11650;DHT22;5881;48.522;7.682;2023-03-21T16:10:33;15.40;1.00
11650;DHT22;5881;48.522;7.682;2023-03-21T16:13:01;15.30;1.00
11650;DHT22;5881;48.522;7.682;2023-03-21T16:15:26;15.30;1.00
11650;DHT22;5881;48.522;7.682;2023-03-21T16:17:56;15.40;1.00
11650;DHT22;5881;48.522;7.682;2023-03-21T16:20:28;15.40;1.00
11650;DHT22;5881;48.522;7.682;2023-03-21T16:22:57;15.40;1.00
11650;DHT22;5881;48.522;7.682;2023-03-21T16:25:23;15.40;1.00
11650;DHT22;5881;48.522;7.682;2023-03-21T16:27:49;15.30;1.00
11650;DHT22;5881;48.522;7.682;2023-03-21T16:30:18;15.30;1.00
11650;DHT22;5881;48.522;7.682;2023-03-21T16:32:44;15.30;1.00
11650;DHT22;5881;48.522;7.682;2023-03-21T16:35:10;15.30;1.00
11650;DHT22;5881;48.522;7.682;2023-03-21T16:37:36;15.30;1.00
11650;DHT22;5881;48.522;7.682;2023-03-21T16:40:03;15.30;1.00
11650;DHT22;5881;48.522;7.682;2023-03-21T16:42:30;15.20;1.00
11650;DHT22;5881;48.522;7.682;2023-03-21T16:44:56;15.20;1.00
11650;DHT22;5881;48.522;7.682;2023-03-21T16:47:21;15.20;1.00
11650;DHT22;5881;48.522;7.682;2023-03-21T16:49:50;15.10;1.00
11650;DHT22;5881;48.522;7.682;2023-03-21T16:52:15;15.00;1.00
11650;DHT22;5881;48.522;7.682;2023-03-21T16:54:41;14.90;1.00
11650;DHT22;5881;48.522;7.682;2023-03-21T16:57:24;14.90;1.00
11650;DHT22;5881;48.522;7.682;2023-03-21T16:59:54;14.80;1.00
11650;DHT22;5881;48.522;7.682;2023-03-21T17:02:21;14.80;1.00
11650;DHT22;5881;48.522;7.682;2023-03-21T17:04:47;14.80;1.00
11650;DHT22;5881;48.522;7.682;2023-03-21T17:07:13;14.80;1.00
11650;DHT22;5881;48.522;7.682;2023-03-21T17:09:40;14.80;1.00
11650;DHT22;5881;48.522;7.682;2023-03-21T17:12:12;14.70;1.00
11650;DHT22;5881;48.522;7.682;2023-03-21T17:14:42;14.80;1.00
11650;DHT22;5881;48.522;7.682;2023-03-21T17:17:12;14.70;1.00
11650;DHT22;5881;48.522;7.682;2023-03-21T17:19:38;14.70;1.00
11650;DHT22;5881;48.522;7.682;2023-03-21T17:22:03;14.60;1.00
11650;DHT22;5881;48.522;7.682;2023-03-21T17:24:29;14.60;1.00
11650;DHT22;5881;48.522;7.682;2023-03-21T17:26:55;14.60;1.00
11650;DHT22;5881;48.522;7.682;2023-03-21T17:29:21;14.60;1.00
11650;DHT22;5881;48.522;7.682;2023-03-21T17:31:46;14.60;1.00
11650;DHT22;5881;48.522;7.682;2023-03-21T17:34:14;14.50;1.00
11650;DHT22;5881;48.522;7.682;2023-03-21T17:36:41;14.40;1.00
11650;DHT22;5881;48.522;7.682;2023-03-21T17:39:17;14.40;1.00
11650;DHT22;5881;48.522;7.682;2023-03-21T17:41:43;14.40;1.00
11650;DHT22;5881;48.522;7.682;2023-03-21T17:44:08;14.30;1.00
11650;DHT22;5881;48.522;7.682;2023-03-21T17:46:36;14.20;1.00
11650;DHT22;5881;48.522;7.682;2023-03-21T17:49:02;14.20;1.00
11650;DHT22;5881;48.522;7.682;2023-03-21T17:51:28;14.20;1.00
11650;DHT22;5881;48.522;7.682;2023-03-21T17:53:55;14.20;1.00
11650;DHT22;5881;48.522;7.682;2023-03-21T17:56:28;14.20;1.00
11650;DHT22;5881;48.522;7.682;2023-03-21T17:58:59;14.20;1.00
11650;DHT22;5881;48.522;7.682;2023-03-21T18:01:26;14.00;1.00
11650;DHT22;5881;48.522;7.682;2023-03-21T18:03:51;14.00;1.00
11650;DHT22;5881;48.522;7.682;2023-03-21T18:06:21;13.90;1.00
11650;DHT22;5881;48.522;7.682;2023-03-21T18:08:47;13.80;1.00
11650;DHT22;5881;48.522;7.682;2023-03-21T18:11:14;13.80;1.00
11650;DHT22;5881;48.522;7.682;2023-03-21T18:13:41;13.80;1.00
11650;DHT22;5881;48.522;7.682;2023-03-21T18:16:13;13.70;1.00
11650;DHT22;5881;48.522;7.682;2023-03-21T18:18:40;13.60;1.00
11650;DHT22;5881;48.522;7.682;2023-03-21T18:21:06;13.60;1.00
11650;DHT22;5881;48.522;7.682;2023-03-21T18:23:38;13.50;1.00
11650;DHT22;5881;48.522;7.682;2023-03-21T18:26:04;13.40;1.00